sensor_id;sensor_type;location;lat;lon;timestamp;P1;durP1;ratioP1;P2;durP2;ratioP2
11173;SDS011;5643;50.856;12.088;2022-11-02T00:02:17;1.80;;;1.70;;
11173;SDS011;5643;50.856;12.088;2022-11-02T00:04:45;2.03;;;1.67;;
11173;SDS011;5643;50.856;12.088;2022-11-02T00:07:13;1.77;;;1.67;;
11173;SDS011;5643;50.856;12.088;2022-11-02T00:09:42;1.90;;;1.80;;
11173;SDS011;5643;50.856;12.088;2022-11-02T00:12:09;2.07;;;1.87;;
11173;SDS011;5643;50.856;12.088;2022-11-02T00:14:37;2.13;;;1.90;;
11173;SDS011;5643;50.856;12.088;2022-11-02T00:17:05;1.80;;;1.70;;
11173;SDS011;5643;50.856;12.088;2022-11-02T00:19:33;3.93;;;1.80;;
11173;SDS011;5643;50.856;12.088;2022-11-02T00:22:01;1.50;;;1.40;;
11173;SDS011;5643;50.856;12.088;2022-11-02T00:24:29;1.70;;;1.50;;
11173;SDS011;5643;50.856;12.088;2022-11-02T00:26:59;1.87;;;1.60;;
11173;SDS011;5643;50.856;12.088;2022-11-02T00:29:26;1.47;;;1.37;;
11173;SDS011;5643;50.856;12.088;2022-11-02T00:31:54;1.67;;;1.50;;
11173;SDS011;5643;50.856;12.088;2022-11-02T00:34:22;1.97;;;1.43;;
11173;SDS011;5643;50.856;12.088;2022-11-02T00:36:49;1.53;;;1.40;;
11173;SDS011;5643;50.856;12.088;2022-11-02T00:39:17;1.70;;;1.57;;
11173;SDS011;5643;50.856;12.088;2022-11-02T00:41:45;1.43;;;1.33;;
11173;SDS011;5643;50.856;12.088;2022-11-02T00:44:14;1.30;;;1.20;;
11173;SDS011;5643;50.856;12.088;2022-11-02T00:46:42;1.20;;;1.10;;
11173;SDS011;5643;50.856;12.088;2022-11-02T00:49:09;1.30;;;1.20;;
11173;SDS011;5643;50.856;12.088;2022-11-02T00:51:37;1.47;;;1.37;;
11173;SDS011;5643;50.856;12.088;2022-11-02T00:54:05;1.80;;;1.33;;
11173;SDS011;5643;50.856;12.088;2022-11-02T00:56:32;1.23;;;1.13;;
11173;SDS011;5643;50.856;12.088;2022-11-02T00:59:00;1.57;;;1.03;;
11173;SDS011;5643;50.856;12.088;2022-11-02T01:01:29;1.30;;;1.00;;
11173;SDS011;5643;50.856;12.088;2022-11-02T01:03:56;1.30;;;1.20;;
11173;SDS011;5643;50.856;12.088;2022-11-02T01:06:24;1.27;;;1.17;;
11173;SDS011;5643;50.856;12.088;2022-11-02T01:08:52;1.63;;;0.90;;
11173;SDS011;5643;50.856;12.088;2022-11-02T01:11:20;1.33;;;0.87;;
11173;SDS011;5643;50.856;12.088;2022-11-02T01:13:48;1.37;;;1.03;;
11173;SDS011;5643;50.856;12.088;2022-11-02T01:16:17;1.37;;;1.03;;
11173;SDS011;5643;50.856;12.088;2022-11-02T01:18:46;1.57;;;1.07;;
11173;SDS011;5643;50.856;12.088;2022-11-02T01:21:17;1.57;;;1.03;;
11173;SDS011;5643;50.856;12.088;2022-11-02T01:23:45;1.13;;;1.00;;
11173;SDS011;5643;50.856;12.088;2022-11-02T01:26:13;1.10;;;0.80;;
11173;SDS011;5643;50.856;12.088;2022-11-02T01:28:40;1.90;;;1.20;;
11173;SDS011;5643;50.856;12.088;2022-11-02T01:31:09;1.10;;;0.97;;
11173;SDS011;5643;50.856;12.088;2022-11-02T01:33:37;1.20;;;1.00;;
11173;SDS011;5643;50.856;12.088;2022-11-02T01:36:11;0.83;;;0.83;;
11173;SDS011;5643;50.856;12.088;2022-11-02T01:38:39;0.90;;;0.90;;
11173;SDS011;5643;50.856;12.088;2022-11-02T01:41:08;1.33;;;1.10;;
11173;SDS011;5643;50.856;12.088;2022-11-02T01:43:36;1.17;;;0.90;;
11173;SDS011;5643;50.856;12.088;2022-11-02T01:46:10;1.47;;;1.27;;
11173;SDS011;5643;50.856;12.088;2022-11-02T01:48:40;1.23;;;0.93;;
11173;SDS011;5643;50.856;12.088;2022-11-02T01:51:08;1.00;;;0.90;;
11173;SDS011;5643;50.856;12.088;2022-11-02T01:53:40;1.13;;;1.03;;
11173;SDS011;5643;50.856;12.088;2022-11-02T01:56:09;2.30;;;1.13;;
11173;SDS011;5643;50.856;12.088;2022-11-02T01:58:38;1.13;;;1.03;;
11173;SDS011;5643;50.856;12.088;2022-11-02T02:01:06;1.10;;;1.00;;
11173;SDS011;5643;50.856;12.088;2022-11-02T02:03:34;1.70;;;1.20;;
11173;SDS011;5643;50.856;12.088;2022-11-02T02:06:04;1.87;;;1.30;;
11173;SDS011;5643;50.856;12.088;2022-11-02T02:08:33;1.37;;;1.27;;
11173;SDS011;5643;50.856;12.088;2022-11-02T02:13:47;1.40;;;1.00;;
11173;SDS011;5643;50.856;12.088;2022-11-02T02:16:16;1.27;;;1.17;;
11173;SDS011;5643;50.856;12.088;2022-11-02T02:18:45;2.40;;;1.00;;
11173;SDS011;5643;50.856;12.088;2022-11-02T02:21:18;1.20;;;1.10;;
11173;SDS011;5643;50.856;12.088;2022-11-02T02:23:57;1.83;;;1.10;;
11173;SDS011;5643;50.856;12.088;2022-11-02T02:26:34;1.17;;;1.03;;
11173;SDS011;5643;50.856;12.088;2022-11-02T02:29:06;1.33;;;0.90;;
11173;SDS011;5643;50.856;12.088;2022-11-02T02:31:35;1.20;;;1.10;;
11173;SDS011;5643;50.856;12.088;2022-11-02T02:34:03;0.90;;;0.90;;
11173;SDS011;5643;50.856;12.088;2022-11-02T02:36:35;0.97;;;0.90;;
11173;SDS011;5643;50.856;12.088;2022-11-02T02:39:05;1.27;;;1.03;;
11173;SDS011;5643;50.856;12.088;2022-11-02T02:41:35;1.10;;;1.00;;
11173;SDS011;5643;50.856;12.088;2022-11-02T02:44:06;1.97;;;0.90;;
11173;SDS011;5643;50.856;12.088;2022-11-02T02:46:36;0.83;;;0.83;;
11173;SDS011;5643;50.856;12.088;2022-11-02T02:49:06;1.10;;;1.00;;
11173;SDS011;5643;50.856;12.088;2022-11-02T02:51:39;1.40;;;1.07;;
11173;SDS011;5643;50.856;12.088;2022-11-02T02:54:08;1.20;;;1.00;;
11173;SDS011;5643;50.856;12.088;2022-11-02T02:56:38;1.33;;;0.80;;
11173;SDS011;5643;50.856;12.088;2022-11-02T02:59:10;1.80;;;1.00;;
11173;SDS011;5643;50.856;12.088;2022-11-02T03:01:39;1.20;;;0.80;;
11173;SDS011;5643;50.856;12.088;2022-11-02T03:04:09;1.00;;;0.70;;
11173;SDS011;5643;50.856;12.088;2022-11-02T03:06:38;1.40;;;1.00;;
11173;SDS011;5643;50.856;12.088;2022-11-02T03:09:08;0.83;;;0.83;;
11173;SDS011;5643;50.856;12.088;2022-11-02T03:11:38;1.50;;;1.00;;
11173;SDS011;5643;50.856;12.088;2022-11-02T03:14:14;1.43;;;1.00;;
11173;SDS011;5643;50.856;12.088;2022-11-02T03:16:49;0.70;;;0.70;;
11173;SDS011;5643;50.856;12.088;2022-11-02T03:19:22;1.40;;;1.10;;
11173;SDS011;5643;50.856;12.088;2022-11-02T03:21:54;1.40;;;1.07;;
11173;SDS011;5643;50.856;12.088;2022-11-02T03:24:24;1.67;;;0.93;;
11173;SDS011;5643;50.856;12.088;2022-11-02T03:26:55;1.13;;;1.03;;
11173;SDS011;5643;50.856;12.088;2022-11-02T03:29:31;1.30;;;1.00;;
11173;SDS011;5643;50.856;12.088;2022-11-02T03:32:02;0.70;;;0.70;;
11173;SDS011;5643;50.856;12.088;2022-11-02T03:34:33;1.70;;;1.00;;
11173;SDS011;5643;50.856;12.088;2022-11-02T03:37:06;0.70;;;0.70;;
11173;SDS011;5643;50.856;12.088;2022-11-02T03:39:38;1.10;;;0.70;;
11173;SDS011;5643;50.856;12.088;2022-11-02T03:42:08;1.03;;;0.70;;
11173;SDS011;5643;50.856;12.088;2022-11-02T03:44:38;1.13;;;0.70;;
11173;SDS011;5643;50.856;12.088;2022-11-02T03:47:14;0.87;;;0.60;;
11173;SDS011;5643;50.856;12.088;2022-11-02T03:49:45;1.63;;;0.60;;
11173;SDS011;5643;50.856;12.088;2022-11-02T03:52:15;1.10;;;0.87;;
11173;SDS011;5643;50.856;12.088;2022-11-02T03:54:45;1.40;;;0.80;;
11173;SDS011;5643;50.856;12.088;2022-11-02T03:57:16;0.80;;;0.70;;
11173;SDS011;5643;50.856;12.088;2022-11-02T03:59:47;2.20;;;1.00;;
11173;SDS011;5643;50.856;12.088;2022-11-02T04:02:14;0.90;;;0.63;;
11173;SDS011;5643;50.856;12.088;2022-11-02T04:04:48;0.90;;;0.67;;
11173;SDS011;5643;50.856;12.088;2022-11-02T04:07:16;1.50;;;0.70;;
11173;SDS011;5643;50.856;12.088;2022-11-02T04:09:45;0.87;;;0.70;;
11173;SDS011;5643;50.856;12.088;2022-11-02T04:12:12;0.97;;;0.70;;
11173;SDS011;5643;50.856;12.088;2022-11-02T04:14:57;0.70;;;0.60;;
11173;SDS011;5643;50.856;12.088;2022-11-02T04:17:26;1.40;;;0.80;;
11173;SDS011;5643;50.856;12.088;2022-11-02T04:20:10;1.50;;;0.80;;
11173;SDS011;5643;50.856;12.088;2022-11-02T04:22:38;2.00;;;0.63;;
11173;SDS011;5643;50.856;12.088;2022-11-02T04:25:22;1.10;;;0.80;;
11173;SDS011;5643;50.856;12.088;2022-11-02T04:27:50;1.50;;;0.87;;
11173;SDS011;5643;50.856;12.088;2022-11-02T04:30:19;0.93;;;0.70;;
11173;SDS011;5643;50.856;12.088;2022-11-02T04:32:48;0.60;;;0.60;;
11173;SDS011;5643;50.856;12.088;2022-11-02T04:35:33;1.57;;;0.70;;
11173;SDS011;5643;50.856;12.088;2022-11-02T04:38:00;0.60;;;0.60;;
11173;SDS011;5643;50.856;12.088;2022-11-02T04:40:45;1.13;;;0.73;;
11173;SDS011;5643;50.856;12.088;2022-11-02T04:43:13;0.93;;;0.80;;
11173;SDS011;5643;50.856;12.088;2022-11-02T04:45:41;2.43;;;0.90;;
11173;SDS011;5643;50.856;12.088;2022-11-02T04:48:09;1.33;;;0.90;;
11173;SDS011;5643;50.856;12.088;2022-11-02T04:50:36;1.07;;;0.87;;
11173;SDS011;5643;50.856;12.088;2022-11-02T04:53:04;1.13;;;0.80;;
11173;SDS011;5643;50.856;12.088;2022-11-02T04:55:33;1.20;;;0.87;;
11173;SDS011;5643;50.856;12.088;2022-11-02T04:58:00;1.57;;;1.00;;
11173;SDS011;5643;50.856;12.088;2022-11-02T05:00:27;1.47;;;0.80;;
11173;SDS011;5643;50.856;12.088;2022-11-02T05:02:56;0.90;;;0.73;;
11173;SDS011;5643;50.856;12.088;2022-11-02T05:05:23;0.80;;;0.70;;
11173;SDS011;5643;50.856;12.088;2022-11-02T05:07:50;0.73;;;0.60;;
11173;SDS011;5643;50.856;12.088;2022-11-02T05:10:18;0.93;;;0.87;;
11173;SDS011;5643;50.856;12.088;2022-11-02T05:12:45;1.57;;;0.70;;
11173;SDS011;5643;50.856;12.088;2022-11-02T05:15:12;0.87;;;0.80;;
11173;SDS011;5643;50.856;12.088;2022-11-02T05:17:40;1.73;;;0.70;;
11173;SDS011;5643;50.856;12.088;2022-11-02T05:20:09;0.67;;;0.67;;
11173;SDS011;5643;50.856;12.088;2022-11-02T05:22:36;0.50;;;0.50;;
11173;SDS011;5643;50.856;12.088;2022-11-02T05:25:07;1.67;;;0.60;;
11173;SDS011;5643;50.856;12.088;2022-11-02T05:27:34;1.20;;;0.70;;
11173;SDS011;5643;50.856;12.088;2022-11-02T05:30:02;1.00;;;0.70;;
11173;SDS011;5643;50.856;12.088;2022-11-02T05:32:30;1.03;;;0.80;;
11173;SDS011;5643;50.856;12.088;2022-11-02T05:34:57;1.07;;;0.63;;
11173;SDS011;5643;50.856;12.088;2022-11-02T05:37:26;0.97;;;0.90;;
11173;SDS011;5643;50.856;12.088;2022-11-02T05:39:53;0.73;;;0.60;;
11173;SDS011;5643;50.856;12.088;2022-11-02T05:42:20;0.93;;;0.63;;
11173;SDS011;5643;50.856;12.088;2022-11-02T05:44:48;0.67;;;0.50;;
11173;SDS011;5643;50.856;12.088;2022-11-02T05:47:15;0.70;;;0.70;;
11173;SDS011;5643;50.856;12.088;2022-11-02T05:49:42;0.70;;;0.70;;
11173;SDS011;5643;50.856;12.088;2022-11-02T05:52:09;0.60;;;0.60;;
11173;SDS011;5643;50.856;12.088;2022-11-02T05:54:38;1.07;;;0.70;;
11173;SDS011;5643;50.856;12.088;2022-11-02T05:57:05;1.03;;;0.90;;
11173;SDS011;5643;50.856;12.088;2022-11-02T05:59:32;0.73;;;0.60;;
11173;SDS011;5643;50.856;12.088;2022-11-02T06:01:59;0.70;;;0.70;;
11173;SDS011;5643;50.856;12.088;2022-11-02T06:04:27;0.80;;;0.70;;
11173;SDS011;5643;50.856;12.088;2022-11-02T06:06:55;1.03;;;0.70;;
11173;SDS011;5643;50.856;12.088;2022-11-02T06:09:22;0.87;;;0.80;;
11173;SDS011;5643;50.856;12.088;2022-11-02T06:11:50;0.70;;;0.70;;
11173;SDS011;5643;50.856;12.088;2022-11-02T06:14:18;0.97;;;0.57;;
11173;SDS011;5643;50.856;12.088;2022-11-02T06:16:46;1.90;;;0.77;;
11173;SDS011;5643;50.856;12.088;2022-11-02T06:19:15;1.37;;;0.80;;
11173;SDS011;5643;50.856;12.088;2022-11-02T06:21:42;1.10;;;0.83;;
11173;SDS011;5643;50.856;12.088;2022-11-02T06:24:09;0.97;;;0.80;;
11173;SDS011;5643;50.856;12.088;2022-11-02T06:26:39;0.97;;;0.80;;
11173;SDS011;5643;50.856;12.088;2022-11-02T06:29:08;0.90;;;0.90;;
11173;SDS011;5643;50.856;12.088;2022-11-02T06:31:35;0.90;;;0.80;;
11173;SDS011;5643;50.856;12.088;2022-11-02T06:34:05;1.13;;;0.90;;
11173;SDS011;5643;50.856;12.088;2022-11-02T06:36:33;1.40;;;0.83;;
11173;SDS011;5643;50.856;12.088;2022-11-02T06:39:00;1.63;;;1.00;;
11173;SDS011;5643;50.856;12.088;2022-11-02T06:41:27;1.40;;;1.10;;
11173;SDS011;5643;50.856;12.088;2022-11-02T06:43:54;1.83;;;1.20;;
11173;SDS011;5643;50.856;12.088;2022-11-02T06:46:24;1.57;;;0.83;;
11173;SDS011;5643;50.856;12.088;2022-11-02T06:48:51;2.87;;;1.00;;
11173;SDS011;5643;50.856;12.088;2022-11-02T06:51:18;2.07;;;1.20;;
11173;SDS011;5643;50.856;12.088;2022-11-02T06:53:46;1.10;;;1.00;;
11173;SDS011;5643;50.856;12.088;2022-11-02T06:56:13;1.83;;;0.90;;
11173;SDS011;5643;50.856;12.088;2022-11-02T06:58:41;0.87;;;0.63;;
11173;SDS011;5643;50.856;12.088;2022-11-02T07:01:08;1.90;;;1.07;;
11173;SDS011;5643;50.856;12.088;2022-11-02T07:03:37;0.90;;;0.60;;
11173;SDS011;5643;50.856;12.088;2022-11-02T07:06:04;0.80;;;0.67;;
11173;SDS011;5643;50.856;12.088;2022-11-02T07:08:31;0.70;;;0.53;;
11173;SDS011;5643;50.856;12.088;2022-11-02T07:10:59;1.17;;;0.60;;
11173;SDS011;5643;50.856;12.088;2022-11-02T07:13:26;1.70;;;0.80;;
11173;SDS011;5643;50.856;12.088;2022-11-02T07:15:54;2.17;;;0.90;;
11173;SDS011;5643;50.856;12.088;2022-11-02T07:18:21;1.20;;;0.70;;
11173;SDS011;5643;50.856;12.088;2022-11-02T07:20:50;1.17;;;0.70;;
11173;SDS011;5643;50.856;12.088;2022-11-02T07:23:17;1.67;;;0.80;;
11173;SDS011;5643;50.856;12.088;2022-11-02T07:25:48;3.33;;;0.80;;
11173;SDS011;5643;50.856;12.088;2022-11-02T07:28:16;1.27;;;0.80;;
11173;SDS011;5643;50.856;12.088;2022-11-02T07:30:43;1.30;;;0.70;;
11173;SDS011;5643;50.856;12.088;2022-11-02T07:33:10;1.70;;;0.90;;
11173;SDS011;5643;50.856;12.088;2022-11-02T07:35:38;1.30;;;0.70;;
11173;SDS011;5643;50.856;12.088;2022-11-02T07:38:07;1.57;;;1.00;;
11173;SDS011;5643;50.856;12.088;2022-11-02T07:40:35;2.10;;;0.90;;
11173;SDS011;5643;50.856;12.088;2022-11-02T07:43:03;1.47;;;0.97;;
11173;SDS011;5643;50.856;12.088;2022-11-02T07:45:31;1.50;;;0.87;;
11173;SDS011;5643;50.856;12.088;2022-11-02T07:47:59;0.97;;;0.73;;
11173;SDS011;5643;50.856;12.088;2022-11-02T07:50:27;1.80;;;0.80;;
11173;SDS011;5643;50.856;12.088;2022-11-02T07:52:55;1.27;;;0.80;;
11173;SDS011;5643;50.856;12.088;2022-11-02T07:55:27;1.53;;;0.80;;
11173;SDS011;5643;50.856;12.088;2022-11-02T07:57:55;2.13;;;0.90;;
11173;SDS011;5643;50.856;12.088;2022-11-02T08:00:22;2.77;;;1.20;;
11173;SDS011;5643;50.856;12.088;2022-11-02T08:02:52;0.90;;;0.90;;
11173;SDS011;5643;50.856;12.088;2022-11-02T08:05:20;1.20;;;1.00;;
11173;SDS011;5643;50.856;12.088;2022-11-02T08:07:47;1.40;;;0.80;;
11173;SDS011;5643;50.856;12.088;2022-11-02T08:10:22;1.80;;;1.00;;
11173;SDS011;5643;50.856;12.088;2022-11-02T08:12:51;0.83;;;0.70;;
11173;SDS011;5643;50.856;12.088;2022-11-02T08:15:18;1.73;;;0.90;;
11173;SDS011;5643;50.856;12.088;2022-11-02T08:17:46;1.07;;;0.83;;
11173;SDS011;5643;50.856;12.088;2022-11-02T08:20:13;2.40;;;0.93;;
11173;SDS011;5643;50.856;12.088;2022-11-02T08:22:40;2.93;;;1.60;;
11173;SDS011;5643;50.856;12.088;2022-11-02T08:25:07;1.87;;;1.20;;
11173;SDS011;5643;50.856;12.088;2022-11-02T08:27:34;1.40;;;1.00;;
11173;SDS011;5643;50.856;12.088;2022-11-02T08:30:03;2.67;;;1.07;;
11173;SDS011;5643;50.856;12.088;2022-11-02T08:32:31;1.27;;;0.80;;
11173;SDS011;5643;50.856;12.088;2022-11-02T08:34:58;1.60;;;0.80;;
11173;SDS011;5643;50.856;12.088;2022-11-02T08:37:25;1.23;;;0.70;;
11173;SDS011;5643;50.856;12.088;2022-11-02T08:39:52;1.23;;;0.90;;
11173;SDS011;5643;50.856;12.088;2022-11-02T08:42:20;2.00;;;0.87;;
11173;SDS011;5643;50.856;12.088;2022-11-02T08:44:47;1.73;;;1.07;;
11173;SDS011;5643;50.856;12.088;2022-11-02T08:47:16;3.33;;;2.03;;
11173;SDS011;5643;50.856;12.088;2022-11-02T08:49:43;4.17;;;3.27;;
11173;SDS011;5643;50.856;12.088;2022-11-02T08:52:11;5.00;;;3.80;;
11173;SDS011;5643;50.856;12.088;2022-11-02T08:54:39;6.97;;;4.87;;
11173;SDS011;5643;50.856;12.088;2022-11-02T08:57:07;11.10;;;7.20;;
11173;SDS011;5643;50.856;12.088;2022-11-02T08:59:35;14.83;;;8.90;;
11173;SDS011;5643;50.856;12.088;2022-11-02T09:02:02;13.17;;;8.83;;
11173;SDS011;5643;50.856;12.088;2022-11-02T09:04:32;16.47;;;10.27;;
11173;SDS011;5643;50.856;12.088;2022-11-02T09:06:59;15.67;;;10.77;;
11173;SDS011;5643;50.856;12.088;2022-11-02T09:09:27;15.03;;;9.33;;
11173;SDS011;5643;50.856;12.088;2022-11-02T09:11:55;14.77;;;8.70;;
11173;SDS011;5643;50.856;12.088;2022-11-02T09:14:22;9.53;;;6.23;;
11173;SDS011;5643;50.856;12.088;2022-11-02T09:16:50;5.37;;;4.10;;
11173;SDS011;5643;50.856;12.088;2022-11-02T09:19:18;6.90;;;3.97;;
11173;SDS011;5643;50.856;12.088;2022-11-02T09:21:47;4.80;;;2.73;;
11173;SDS011;5643;50.856;12.088;2022-11-02T09:24:16;4.07;;;1.90;;
11173;SDS011;5643;50.856;12.088;2022-11-02T09:26:43;3.43;;;1.60;;
11173;SDS011;5643;50.856;12.088;2022-11-02T09:29:11;6.93;;;4.80;;
11173;SDS011;5643;50.856;12.088;2022-11-02T09:31:38;6.03;;;4.17;;
11173;SDS011;5643;50.856;12.088;2022-11-02T09:34:05;4.20;;;2.13;;
11173;SDS011;5643;50.856;12.088;2022-11-02T09:36:32;1.87;;;1.47;;
11173;SDS011;5643;50.856;12.088;2022-11-02T09:39:02;1.73;;;1.20;;
11173;SDS011;5643;50.856;12.088;2022-11-02T09:41:31;2.77;;;1.40;;
11173;SDS011;5643;50.856;12.088;2022-11-02T09:44:00;3.37;;;1.43;;
11173;SDS011;5643;50.856;12.088;2022-11-02T09:46:29;3.07;;;1.20;;
11173;SDS011;5643;50.856;12.088;2022-11-02T09:49:00;2.30;;;1.13;;
11173;SDS011;5643;50.856;12.088;2022-11-02T09:51:31;3.20;;;1.20;;
11173;SDS011;5643;50.856;12.088;2022-11-02T09:54:04;2.70;;;1.00;;
11173;SDS011;5643;50.856;12.088;2022-11-02T09:56:32;2.77;;;1.10;;
11173;SDS011;5643;50.856;12.088;2022-11-02T09:59:01;3.90;;;1.20;;
11173;SDS011;5643;50.856;12.088;2022-11-02T10:01:38;2.80;;;1.17;;
11173;SDS011;5643;50.856;12.088;2022-11-02T10:04:20;2.00;;;1.00;;
11173;SDS011;5643;50.856;12.088;2022-11-02T10:06:55;2.17;;;1.10;;
11173;SDS011;5643;50.856;12.088;2022-11-02T10:09:25;3.53;;;1.40;;
11173;SDS011;5643;50.856;12.088;2022-11-02T10:11:54;2.17;;;1.03;;
11173;SDS011;5643;50.856;12.088;2022-11-02T10:14:24;3.03;;;1.20;;
11173;SDS011;5643;50.856;12.088;2022-11-02T10:16:56;2.13;;;1.10;;
11173;SDS011;5643;50.856;12.088;2022-11-02T10:19:24;2.17;;;0.90;;
11173;SDS011;5643;50.856;12.088;2022-11-02T10:21:53;1.77;;;1.07;;
11173;SDS011;5643;50.856;12.088;2022-11-02T10:24:23;2.60;;;1.40;;
11173;SDS011;5643;50.856;12.088;2022-11-02T10:26:53;2.83;;;1.37;;
11173;SDS011;5643;50.856;12.088;2022-11-02T10:29:25;2.60;;;1.40;;
11173;SDS011;5643;50.856;12.088;2022-11-02T10:31:58;4.27;;;2.00;;
11173;SDS011;5643;50.856;12.088;2022-11-02T10:34:25;3.30;;;2.47;;
11173;SDS011;5643;50.856;12.088;2022-11-02T10:36:55;3.23;;;2.20;;
11173;SDS011;5643;50.856;12.088;2022-11-02T10:39:29;3.87;;;1.97;;
11173;SDS011;5643;50.856;12.088;2022-11-02T10:42:03;2.83;;;1.27;;
11173;SDS011;5643;50.856;12.088;2022-11-02T10:44:41;2.10;;;0.90;;
11173;SDS011;5643;50.856;12.088;2022-11-02T10:47:12;3.43;;;1.70;;
11173;SDS011;5643;50.856;12.088;2022-11-02T10:49:48;1.93;;;1.10;;
11173;SDS011;5643;50.856;12.088;2022-11-02T10:52:18;2.67;;;1.17;;
11173;SDS011;5643;50.856;12.088;2022-11-02T10:54:47;1.90;;;0.93;;
11173;SDS011;5643;50.856;12.088;2022-11-02T10:57:19;2.43;;;1.10;;
11173;SDS011;5643;50.856;12.088;2022-11-02T10:59:55;1.73;;;1.00;;
11173;SDS011;5643;50.856;12.088;2022-11-02T11:02:42;1.53;;;0.90;;
11173;SDS011;5643;50.856;12.088;2022-11-02T11:05:13;2.10;;;1.00;;
11173;SDS011;5643;50.856;12.088;2022-11-02T11:07:41;1.57;;;0.87;;
11173;SDS011;5643;50.856;12.088;2022-11-02T11:10:12;2.23;;;1.00;;
11173;SDS011;5643;50.856;12.088;2022-11-02T11:12:45;2.13;;;1.00;;
11173;SDS011;5643;50.856;12.088;2022-11-02T11:15:19;1.70;;;0.80;;
11173;SDS011;5643;50.856;12.088;2022-11-02T11:17:47;2.87;;;1.70;;
11173;SDS011;5643;50.856;12.088;2022-11-02T11:20:26;2.57;;;1.30;;
11173;SDS011;5643;50.856;12.088;2022-11-02T11:23:07;2.90;;;1.70;;
11173;SDS011;5643;50.856;12.088;2022-11-02T11:25:35;5.10;;;2.33;;
11173;SDS011;5643;50.856;12.088;2022-11-02T11:28:19;6.47;;;4.10;;
11173;SDS011;5643;50.856;12.088;2022-11-02T11:30:47;7.93;;;5.10;;
11173;SDS011;5643;50.856;12.088;2022-11-02T11:33:18;7.73;;;4.00;;
11173;SDS011;5643;50.856;12.088;2022-11-02T11:35:47;5.37;;;2.77;;
11173;SDS011;5643;50.856;12.088;2022-11-02T11:38:16;3.30;;;1.80;;
11173;SDS011;5643;50.856;12.088;2022-11-02T11:40:44;3.63;;;2.20;;
11173;SDS011;5643;50.856;12.088;2022-11-02T11:43:15;2.80;;;1.10;;
11173;SDS011;5643;50.856;12.088;2022-11-02T11:45:52;2.50;;;1.00;;
11173;SDS011;5643;50.856;12.088;2022-11-02T11:48:23;2.30;;;1.20;;
11173;SDS011;5643;50.856;12.088;2022-11-02T11:50:52;2.10;;;0.87;;
11173;SDS011;5643;50.856;12.088;2022-11-02T11:53:20;2.13;;;1.40;;
11173;SDS011;5643;50.856;12.088;2022-11-02T11:55:48;1.20;;;1.10;;
11173;SDS011;5643;50.856;12.088;2022-11-02T11:58:19;3.00;;;1.80;;
11173;SDS011;5643;50.856;12.088;2022-11-02T12:01:00;4.33;;;2.90;;
11173;SDS011;5643;50.856;12.088;2022-11-02T12:03:28;4.30;;;2.23;;
11173;SDS011;5643;50.856;12.088;2022-11-02T12:05:57;3.53;;;2.23;;
11173;SDS011;5643;50.856;12.088;2022-11-02T12:08:36;4.67;;;3.07;;
11173;SDS011;5643;50.856;12.088;2022-11-02T12:11:16;5.37;;;4.30;;
11173;SDS011;5643;50.856;12.088;2022-11-02T12:16:46;4.93;;;2.90;;
11173;SDS011;5643;50.856;12.088;2022-11-02T12:19:20;10.73;;;5.67;;
11173;SDS011;5643;50.856;12.088;2022-11-02T12:21:54;8.13;;;4.37;;
11173;SDS011;5643;50.856;12.088;2022-11-02T12:24:31;6.93;;;3.37;;
11173;SDS011;5643;50.856;12.088;2022-11-02T12:27:07;4.67;;;1.90;;
11173;SDS011;5643;50.856;12.088;2022-11-02T12:32:23;4.33;;;1.90;;
11173;SDS011;5643;50.856;12.088;2022-11-02T12:35:02;6.23;;;3.20;;
11173;SDS011;5643;50.856;12.088;2022-11-02T12:37:34;6.33;;;3.10;;
11173;SDS011;5643;50.856;12.088;2022-11-02T12:40:12;6.43;;;2.87;;
11173;SDS011;5643;50.856;12.088;2022-11-02T12:42:45;5.13;;;2.43;;
11173;SDS011;5643;50.856;12.088;2022-11-02T12:45:20;3.13;;;1.63;;
11173;SDS011;5643;50.856;12.088;2022-11-02T12:47:54;5.10;;;2.90;;
11173;SDS011;5643;50.856;12.088;2022-11-02T12:50:24;2.37;;;1.40;;
11173;SDS011;5643;50.856;12.088;2022-11-02T12:53:00;2.23;;;1.00;;
11173;SDS011;5643;50.856;12.088;2022-11-02T12:55:31;3.67;;;1.37;;
11173;SDS011;5643;50.856;12.088;2022-11-02T12:58:04;2.60;;;1.07;;
11173;SDS011;5643;50.856;12.088;2022-11-02T13:00:34;3.73;;;1.50;;
11173;SDS011;5643;50.856;12.088;2022-11-02T13:03:04;2.57;;;1.33;;
11173;SDS011;5643;50.856;12.088;2022-11-02T13:05:34;4.57;;;2.30;;
11173;SDS011;5643;50.856;12.088;2022-11-02T13:08:05;2.73;;;1.60;;
11173;SDS011;5643;50.856;12.088;2022-11-02T13:10:37;2.67;;;1.40;;
11173;SDS011;5643;50.856;12.088;2022-11-02T13:13:07;2.27;;;1.00;;
11173;SDS011;5643;50.856;12.088;2022-11-02T13:15:36;1.43;;;0.70;;
11173;SDS011;5643;50.856;12.088;2022-11-02T13:18:09;1.67;;;1.00;;
11173;SDS011;5643;50.856;12.088;2022-11-02T13:20:38;1.17;;;0.60;;
11173;SDS011;5643;50.856;12.088;2022-11-02T13:23:14;1.10;;;0.70;;
11173;SDS011;5643;50.856;12.088;2022-11-02T13:25:43;1.43;;;0.70;;
11173;SDS011;5643;50.856;12.088;2022-11-02T13:28:13;1.10;;;0.60;;
11173;SDS011;5643;50.856;12.088;2022-11-02T13:30:42;1.13;;;0.60;;
11173;SDS011;5643;50.856;12.088;2022-11-02T13:33:12;1.90;;;0.80;;
11173;SDS011;5643;50.856;12.088;2022-11-02T13:35:40;3.00;;;1.00;;
11173;SDS011;5643;50.856;12.088;2022-11-02T13:38:12;2.27;;;1.13;;
11173;SDS011;5643;50.856;12.088;2022-11-02T13:40:46;2.37;;;1.00;;
11173;SDS011;5643;50.856;12.088;2022-11-02T13:43:28;1.67;;;0.73;;
11173;SDS011;5643;50.856;12.088;2022-11-02T13:48:51;1.43;;;0.50;;
11173;SDS011;5643;50.856;12.088;2022-11-02T13:51:25;1.83;;;0.77;;
11173;SDS011;5643;50.856;12.088;2022-11-02T13:53:54;1.13;;;0.63;;
11173;SDS011;5643;50.856;12.088;2022-11-02T13:56:25;2.03;;;0.70;;
11173;SDS011;5643;50.856;12.088;2022-11-02T13:58:55;1.90;;;0.70;;
11173;SDS011;5643;50.856;12.088;2022-11-02T14:01:25;2.30;;;0.67;;
11173;SDS011;5643;50.856;12.088;2022-11-02T14:03:55;1.40;;;0.60;;
11173;SDS011;5643;50.856;12.088;2022-11-02T14:06:24;1.47;;;0.50;;
11173;SDS011;5643;50.856;12.088;2022-11-02T14:08:52;0.90;;;0.60;;
11173;SDS011;5643;50.856;12.088;2022-11-02T14:14:15;1.23;;;0.60;;
11173;SDS011;5643;50.856;12.088;2022-11-02T14:16:43;2.57;;;0.50;;
11173;SDS011;5643;50.856;12.088;2022-11-02T14:19:23;0.90;;;0.70;;
11173;SDS011;5643;50.856;12.088;2022-11-02T14:27:46;1.10;;;0.70;;
11173;SDS011;5643;50.856;12.088;2022-11-02T14:33:00;1.00;;;0.70;;
11173;SDS011;5643;50.856;12.088;2022-11-02T14:35:36;1.57;;;0.60;;
11173;SDS011;5643;50.856;12.088;2022-11-02T14:38:15;1.03;;;0.60;;
11173;SDS011;5643;50.856;12.088;2022-11-02T14:40:46;0.80;;;0.60;;
11173;SDS011;5643;50.856;12.088;2022-11-02T14:43:40;1.70;;;0.60;;
11173;SDS011;5643;50.856;12.088;2022-11-02T14:46:12;1.40;;;0.50;;
11173;SDS011;5643;50.856;12.088;2022-11-02T14:48:43;0.93;;;0.50;;
11173;SDS011;5643;50.856;12.088;2022-11-02T14:51:14;0.70;;;0.50;;
11173;SDS011;5643;50.856;12.088;2022-11-02T14:53:43;1.27;;;0.40;;
11173;SDS011;5643;50.856;12.088;2022-11-02T14:56:11;2.00;;;0.67;;
11173;SDS011;5643;50.856;12.088;2022-11-02T14:58:39;1.87;;;0.73;;
11173;SDS011;5643;50.856;12.088;2022-11-02T15:01:13;1.70;;;0.80;;
11173;SDS011;5643;50.856;12.088;2022-11-02T15:03:41;1.03;;;0.43;;
11173;SDS011;5643;50.856;12.088;2022-11-02T15:06:14;1.07;;;0.50;;
11173;SDS011;5643;50.856;12.088;2022-11-02T15:08:50;0.50;;;0.40;;
11173;SDS011;5643;50.856;12.088;2022-11-02T15:16:46;1.33;;;0.60;;
11173;SDS011;5643;50.856;12.088;2022-11-02T15:19:34;1.10;;;0.63;;
11173;SDS011;5643;50.856;12.088;2022-11-02T15:24:49;1.77;;;0.90;;
11173;SDS011;5643;50.856;12.088;2022-11-02T15:27:17;0.77;;;0.63;;
11173;SDS011;5643;50.856;12.088;2022-11-02T15:29:45;2.43;;;0.90;;
11173;SDS011;5643;50.856;12.088;2022-11-02T15:32:14;2.13;;;0.70;;
11173;SDS011;5643;50.856;12.088;2022-11-02T15:34:44;1.10;;;0.70;;
11173;SDS011;5643;50.856;12.088;2022-11-02T15:37:16;0.90;;;0.80;;